Time;durP1;ratioP1;P1;durP2;ratioP2;P2;SDS_P1;SDS_P2;PMS_P1;PMS_P2;Temp;Humidity;BMP_temperature;BMP_pressure;BME280_temperature;BME280_humidity;BME280_pressure;Samples;Min_cycle;Max_cycle;Signal;HPM_P1;HPM_P2
2021/12/16 06:02:41;;;;;;;9.27;4.97;;;5.30;99.90;;;;;;4933308;29;20772;-78
2021/12/16 06:05:10;;;;;;;9.10;5.03;;;5.30;99.90;;;;;;4917982;29;20051;-78
2021/12/16 06:07:37;;;;;;;9.82;4.88;;;5.30;99.90;;;;;;4933517;29;20044;-79
2021/12/16 06:10:08;;;;;;;9.05;4.47;;;5.40;99.90;;;;;;4933000;29;20054;-78
2021/12/16 06:12:36;;;;;;;9.18;5.03;;;5.30;99.90;;;;;;4925098;29;20470;-77
2021/12/16 06:15:17;;;;;;;9.25;5.30;;;5.30;99.90;;;;;;4916454;29;20130;-77
2021/12/16 06:28:47;;;;;;;10.00;5.13;;;5.40;99.90;;;;;;4917054;29;20159;-76
2021/12/16 06:31:16;;;;;;;10.57;5.55;;;5.50;99.90;;;;;;4930377;29;20052;-76
2021/12/16 06:33:45;;;;;;;8.57;4.85;;;5.50;99.90;;;;;;4937831;29;20086;-77
2021/12/16 06:36:12;;;;;;;10.35;5.05;;;5.50;99.90;;;;;;4928454;29;20052;-76
2021/12/16 06:38:39;;;;;;;10.57;5.40;;;5.50;99.90;;;;;;4926787;29;20060;-77
2021/12/16 06:41:06;;;;;;;9.88;5.45;;;5.60;99.90;;;;;;4925891;29;20094;-76
2021/12/16 06:43:35;;;;;;;9.50;5.25;;;5.50;99.90;;;;;;4927728;29;20062;-77
2021/12/16 06:46:05;;;;;;;8.88;5.13;;;5.60;99.90;;;;;;4913260;29;20091;-76
2021/12/16 06:48:35;;;;;;;11.23;5.70;;;5.50;99.90;;;;;;4937991;29;20058;-77
2021/12/16 06:51:09;;;;;;;11.27;5.88;;;5.60;99.90;;;;;;4925831;29;20059;-79
2021/12/16 06:53:47;;;;;;;11.27;6.35;;;5.50;99.90;;;;;;4918572;29;20509;-77
2021/12/16 06:56:20;;;;;;;12.00;6.63;;;5.50;99.90;;;;;;4922099;29;20398;-77
2021/12/16 06:58:50;;;;;;;11.98;6.45;;;5.50;99.90;;;;;;4919820;29;20071;-78
2021/12/16 07:01:32;;;;;;;10.23;5.80;;;5.40;99.90;;;;;;4939714;29;20625;-79
2021/12/16 07:04:00;;;;;;;13.07;7.05;;;5.40;99.90;;;;;;4937996;29;20099;-78
2021/12/16 07:06:31;;;;;;;13.18;6.95;;;5.40;99.90;;;;;;4950503;29;20086;-79
2021/12/16 07:09:09;;;;;;;13.43;7.10;;;5.40;99.90;;;;;;4950559;29;20408;-76
2021/12/16 07:11:41;;;;;;;13.10;7.38;;;5.40;99.90;;;;;;4937085;29;20056;-79
2021/12/16 07:14:13;;;;;;;12.30;7.20;;;5.40;99.90;;;;;;4936397;29;20051;-78
2021/12/16 07:16:41;;;;;;;15.15;7.63;;;5.30;99.90;;;;;;4936880;29;20059;-76
2021/12/16 07:19:09;;;;;;;14.63;7.47;;;5.30;99.90;;;;;;4937126;29;20047;-78
2021/12/16 07:21:38;;;;;;;15.05;8.25;;;5.30;99.90;;;;;;4936804;29;20679;-77
2021/12/16 07:24:07;;;;;;;11.63;7.22;;;5.30;99.90;;;;;;4936795;29;20052;-76
2021/12/16 07:26:34;;;;;;;12.65;6.72;;;5.30;99.90;;;;;;4936843;29;20416;-77
2021/12/16 07:29:02;;;;;;;14.35;7.28;;;5.30;99.90;;;;;;4936757;29;20055;-77
2021/12/16 07:31:30;;;;;;;13.88;7.88;;;5.20;99.90;;;;;;4936764;29;20058;-78
2021/12/16 07:33:58;;;;;;;14.70;7.55;;;5.30;99.90;;;;;;4936488;29;20099;-78
2021/12/16 07:36:27;;;;;;;11.70;6.85;;;5.30;99.90;;;;;;4944908;29;20051;-76
2021/12/16 07:38:56;;;;;;;11.85;6.90;;;5.30;99.90;;;;;;4938895;29;20051;-77
2021/12/16 07:41:26;;;;;;;13.30;7.68;;;5.30;99.90;;;;;;4955564;28;20485;-77
2021/12/16 07:43:58;;;;;;;12.70;7.07;;;5.30;99.90;;;;;;4955907;29;20043;-78
2021/12/16 07:46:26;;;;;;;12.68;7.45;;;5.30;99.90;;;;;;4955726;29;20087;-78
2021/12/16 07:48:53;;;;;;;11.60;6.70;;;5.40;99.90;;;;;;4955608;29;20142;-78
2021/12/16 07:51:20;;;;;;;13.45;6.85;;;5.40;99.90;;;;;;4957923;29;20149;-78
2021/12/16 07:53:47;;;;;;;11.50;6.47;;;5.40;99.90;;;;;;4955635;29;20074;-78
2021/12/16 07:56:17;;;;;;;10.70;6.40;;;5.40;99.90;;;;;;4955448;29;20062;-76
2021/12/16 07:58:44;;;;;;;12.70;6.30;;;5.40;99.90;;;;;;4955413;29;20527;-79
2021/12/16 08:01:11;;;;;;;13.15;6.78;;;5.50;99.90;;;;;;4955167;29;20267;-77
2021/12/16 08:03:39;;;;;;;12.10;6.60;;;5.50;99.90;;;;;;4955738;29;20069;-77
2021/12/16 08:06:10;;;;;;;10.55;5.85;;;5.60;99.90;;;;;;4955446;29;20444;-77
2021/12/16 08:08:39;;;;;;;11.98;6.10;;;5.60;99.90;;;;;;4943952;29;20051;-77
2021/12/16 08:11:08;;;;;;;11.57;6.80;;;5.60;99.90;;;;;;4936304;29;20056;-78
2021/12/16 08:13:37;;;;;;;11.00;6.50;;;5.60;99.90;;;;;;4953676;29;20061;-78
2021/12/16 08:16:05;;;;;;;10.93;6.45;;;5.70;99.90;;;;;;4955033;29;20047;-79
2021/12/16 08:18:32;;;;;;;10.88;5.95;;;5.70;99.90;;;;;;4955100;29;20069;-78
2021/12/16 08:21:00;;;;;;;11.63;6.07;;;5.70;99.90;;;;;;4955291;29;20137;-78
2021/12/16 08:23:27;;;;;;;11.38;5.90;;;5.70;99.90;;;;;;4955006;29;20135;-79
2021/12/16 08:25:54;;;;;;;10.02;5.72;;;5.70;99.90;;;;;;4954793;29;20059;-78
2021/12/16 08:28:23;;;;;;;11.85;6.10;;;5.80;99.90;;;;;;4954784;29;20142;-77
2021/12/16 08:30:52;;;;;;;13.23;6.07;;;5.80;99.90;;;;;;4954969;29;20422;-78
2021/12/16 08:33:20;;;;;;;11.27;6.38;;;5.90;99.90;;;;;;4954947;29;20079;-79
2021/12/16 08:35:51;;;;;;;12.07;6.70;;;5.90;99.90;;;;;;4952725;29;20464;-78
2021/12/16 08:38:23;;;;;;;9.63;5.45;;;5.90;99.90;;;;;;4935565;29;20058;-78
2021/12/16 08:40:53;;;;;;;10.75;6.15;;;5.90;99.90;;;;;;4935391;29;20161;-78
2021/12/16 08:43:25;;;;;;;10.90;6.35;;;5.90;99.90;;;;;;4935674;29;20058;-77
2021/12/16 08:45:54;;;;;;;10.10;5.68;;;5.90;99.90;;;;;;4935308;29;20388;-77
2021/12/16 08:48:23;;;;;;;10.15;5.55;;;5.90;99.90;;;;;;4935203;29;20052;-76
2021/12/16 08:50:51;;;;;;;10.60;6.03;;;5.90;99.90;;;;;;4935262;29;20065;-79
2021/12/16 08:53:21;;;;;;;10.30;6.13;;;5.90;99.90;;;;;;4934745;29;20058;-78
2021/12/16 08:55:50;;;;;;;10.45;6.05;;;5.90;99.90;;;;;;4935397;29;20062;-77
2021/12/16 08:58:18;;;;;;;10.13;5.43;;;6.00;99.90;;;;;;4935542;29;20051;-80
2021/12/16 09:00:52;;;;;;;11.02;6.25;;;6.00;99.90;;;;;;4935133;29;20066;-76
2021/12/16 09:03:21;;;;;;;10.52;5.82;;;6.00;99.90;;;;;;4935191;29;20047;-78
2021/12/16 09:05:48;;;;;;;9.82;5.72;;;6.00;99.90;;;;;;4952341;29;20420;-78
2021/12/16 09:08:16;;;;;;;9.50;4.93;;;6.00;99.90;;;;;;4954666;29;20061;-78
2021/12/16 09:10:43;;;;;;;11.95;5.88;;;6.10;99.90;;;;;;4954164;29;20057;-79
2021/12/16 09:13:14;;;;;;;11.57;6.13;;;6.00;99.90;;;;;;4954064;29;20489;-78
2021/12/16 09:15:46;;;;;;;9.20;5.38;;;6.10;99.90;;;;;;4954169;29;20043;-77
2021/12/16 09:18:15;;;;;;;10.77;5.82;;;6.10;99.90;;;;;;4954157;29;20511;-77
2021/12/16 09:20:44;;;;;;;11.05;5.80;;;6.10;99.90;;;;;;4952412;29;20061;-78
2021/12/16 09:23:14;;;;;;;10.63;5.63;;;6.10;99.90;;;;;;4954126;29;20057;-78
2021/12/16 09:25:45;;;;;;;10.70;5.85;;;6.10;99.90;;;;;;4954225;29;20051;-78
2021/12/16 09:28:14;;;;;;;11.65;6.25;;;6.10;99.90;;;;;;4954243;29;20059;-76
2021/12/16 09:30:41;;;;;;;10.48;5.45;;;6.10;99.90;;;;;;4954187;29;20059;-78
2021/12/16 09:33:14;;;;;;;11.05;5.65;;;6.20;99.90;;;;;;4958299;29;20070;-79
2021/12/16 09:35:46;;;;;;;11.35;5.93;;;6.20;99.90;;;;;;4954332;29;20051;-79
2021/12/16 09:38:15;;;;;;;9.77;5.25;;;6.20;99.90;;;;;;4955070;29;20057;-78
2021/12/16 09:40:49;;;;;;;9.68;5.60;;;6.20;99.90;;;;;;4954474;29;20047;-79
2021/12/16 09:43:17;;;;;;;11.43;5.68;;;6.20;99.90;;;;;;4953892;29;20086;-79
2021/12/16 09:45:44;;;;;;;12.60;5.85;;;6.20;99.90;;;;;;4954025;29;20583;-79
2021/12/16 09:48:12;;;;;;;11.45;5.35;;;6.20;99.90;;;;;;4941530;29;20058;-78
2021/12/16 09:50:39;;;;;;;10.40;5.13;;;6.20;99.90;;;;;;4936362;29;20044;-78
2021/12/16 09:53:08;;;;;;;9.38;5.30;;;6.30;99.90;;;;;;4934899;29;20123;-78
2021/12/16 09:55:35;;;;;;;8.75;5.05;;;6.30;99.90;;;;;;4934714;29;20058;-79
2021/12/16 09:58:05;;;;;;;8.82;4.75;;;6.30;99.90;;;;;;4934499;29;20048;-79
2021/12/16 10:00:34;;;;;;;10.43;4.97;;;6.40;99.90;;;;;;4934708;29;20052;-79
2021/12/16 10:03:05;;;;;;;9.20;5.10;;;6.40;99.90;;;;;;4934902;29;20048;-81
2021/12/16 10:05:34;;;;;;;8.27;4.75;;;6.40;99.90;;;;;;4935490;29;20060;-79
2021/12/16 10:08:04;;;;;;;9.45;5.40;;;6.40;99.90;;;;;;4921599;29;20131;-79
2021/12/16 10:10:33;;;;;;;11.30;5.63;;;6.40;99.90;;;;;;4938586;29;20056;-79
2021/12/16 10:13:03;;;;;;;9.68;5.57;;;6.50;99.90;;;;;;4938636;29;20477;-79
2021/12/16 10:18:23;;;;;;;10.38;5.40;;;6.50;99.90;;;;;;4957631;29;20118;-79
2021/12/16 10:20:55;;;;;;;9.05;5.22;;;6.60;99.90;;;;;;4956641;29;20086;-78
2021/12/16 10:23:26;;;;;;;9.73;4.88;;;6.60;99.90;;;;;;4946138;28;20501;-78
2021/12/16 10:25:57;;;;;;;11.55;5.40;;;6.60;99.90;;;;;;4935223;29;20501;-79
2021/12/16 10:28:29;;;;;;;10.30;5.60;;;6.60;99.90;;;;;;4934162;29;20051;-78
2021/12/16 10:31:02;;;;;;;9.95;5.53;;;6.60;99.90;;;;;;4952451;29;20488;-80
2021/12/16 10:33:34;;;;;;;11.85;6.25;;;6.60;99.90;;;;;;4952191;29;20051;-80
2021/12/16 10:36:12;;;;;;;20.88;10.05;;;6.70;99.90;;;;;;4952834;29;20053;-80
2021/12/16 10:38:43;;;;;;;14.65;7.50;;;6.70;99.90;;;;;;4935195;29;20051;-78
2021/12/16 10:41:19;;;;;;;14.32;7.18;;;6.70;99.90;;;;;;4952790;29;20166;-80
2021/12/16 10:43:52;;;;;;;11.60;6.50;;;6.70;99.90;;;;;;4933473;29;20051;-79
2021/12/16 10:46:23;;;;;;;9.57;5.57;;;6.70;99.90;;;;;;4951800;29;20415;-80
2021/12/16 10:48:53;;;;;;;10.50;6.18;;;6.70;99.90;;;;;;4933955;29;20139;-79
2021/12/16 10:51:26;;;;;;;9.73;5.63;;;6.70;99.90;;;;;;4933381;29;20405;-80
2021/12/16 10:54:18;;;;;;;11.02;6.00;;;6.70;99.90;;;;;;4934724;29;20056;-79
2021/12/16 10:56:56;;;;;;;11.57;6.75;;;6.70;99.90;;;;;;4939520;29;20434;-80
2021/12/16 10:59:34;;;;;;;12.18;6.75;;;6.70;99.90;;;;;;4934542;29;20058;-78
2021/12/16 11:02:16;;;;;;;12.65;6.38;;;6.80;99.90;;;;;;4935993;29;20056;-78
2021/12/16 11:04:49;;;;;;;14.23;7.25;;;6.80;99.90;;;;;;4927685;29;20576;-78
2021/12/16 11:07:26;;;;;;;10.60;6.40;;;6.80;99.90;;;;;;4934285;29;20458;-80
2021/12/16 11:10:12;;;;;;;9.52;6.03;;;6.80;99.90;;;;;;4949078;29;20059;-79
2021/12/16 11:12:47;;;;;;;9.77;6.13;;;6.80;99.90;;;;;;4952995;29;20051;-78
2021/12/16 11:15:20;;;;;;;11.52;6.10;;;6.80;99.90;;;;;;4953265;29;20504;-79
2021/12/16 11:17:51;;;;;;;11.85;6.40;;;6.80;99.90;;;;;;4960541;28;20054;-79
2021/12/16 11:20:28;;;;;;;11.88;6.50;;;6.80;99.90;;;;;;4955010;28;20138;-79
2021/12/16 11:22:59;;;;;;;11.40;6.38;;;6.90;99.90;;;;;;4945081;28;20043;-82
2021/12/16 11:25:30;;;;;;;10.90;6.68;;;6.90;99.90;;;;;;4954959;28;20501;-87
2021/12/16 11:28:13;;;;;;;11.85;6.90;;;6.90;99.90;;;;;;4963686;29;20233;-81
2021/12/16 11:30:45;;;;;;;13.90;7.95;;;6.90;99.90;;;;;;4954224;29;20412;-82
2021/12/16 11:33:26;;;;;;;13.27;7.65;;;6.90;99.90;;;;;;4955343;29;20055;-80
2021/12/16 11:35:58;;;;;;;13.20;7.40;;;6.90;99.90;;;;;;4954354;29;20394;-84
2021/12/16 11:38:33;;;;;;;13.35;7.25;;;6.90;99.90;;;;;;4935915;29;20488;-80
2021/12/16 11:41:13;;;;;;;;;;;6.90;99.90;;;;;;4953617;29;20077;-80
2021/12/16 11:44:09;;;;;;;14.38;7.50;;;6.90;99.90;;;;;;4948176;29;19926;-81
2021/12/16 11:46:42;;;;;;;14.23;7.72;;;6.90;99.90;;;;;;4934688;29;20524;-82
2021/12/16 11:49:20;;;;;;;12.85;7.15;;;6.90;99.90;;;;;;4935748;29;20436;-82
2021/12/16 11:51:56;;;;;;;13.85;7.53;;;6.80;99.90;;;;;;4935149;29;20142;-85
2021/12/16 11:54:28;;;;;;;12.70;7.00;;;6.90;99.90;;;;;;4934687;29;20095;-82
2021/12/16 11:57:01;;;;;;;12.82;6.88;;;6.90;99.90;;;;;;4934238;29;20059;-83
2021/12/16 11:59:36;;;;;;;11.60;6.75;;;6.90;99.90;;;;;;4935162;29;20047;-81
2021/12/16 12:02:05;;;;;;;12.15;7.13;;;6.90;99.90;;;;;;4935879;29;20115;-80
2021/12/16 12:04:35;;;;;;;14.13;8.02;;;6.90;99.90;;;;;;4934924;29;20585;-80
2021/12/16 12:07:11;;;;;;;13.63;7.60;;;6.90;99.90;;;;;;4917805;29;20131;-82
2021/12/16 12:09:44;;;;;;;15.05;7.45;;;6.90;99.90;;;;;;4933961;29;20055;-79
2021/12/16 12:12:13;;;;;;;14.95;7.70;;;7.00;99.90;;;;;;4935784;29;20055;-84
2021/12/16 12:14:45;;;;;;;15.32;8.10;;;7.00;99.90;;;;;;4935071;29;20051;-83
2021/12/16 12:17:19;;;;;;;13.55;7.30;;;7.00;99.90;;;;;;4934443;29;20478;-82
2021/12/16 12:19:50;;;;;;;13.57;7.68;;;7.00;99.90;;;;;;4934863;29;20102;-83
2021/12/16 12:22:23;;;;;;;14.32;7.60;;;7.00;99.90;;;;;;4935323;29;20124;-83
2021/12/16 12:24:51;;;;;;;13.77;7.57;;;7.00;99.90;;;;;;4933949;29;20402;-81
2021/12/16 12:27:22;;;;;;;15.27;7.57;;;7.10;99.90;;;;;;4933585;29;20047;-79
2021/12/16 12:29:54;;;;;;;13.38;7.22;;;7.10;99.90;;;;;;4946006;29;20065;-81
2021/12/16 12:32:25;;;;;;;13.32;7.22;;;7.10;99.90;;;;;;4953044;29;20077;-81
2021/12/16 12:34:57;;;;;;;35.13;10.00;;;7.10;99.90;;;;;;4953051;29;20066;-83
2021/12/16 12:37:28;;;;;;;62.72;12.55;;;7.10;99.90;;;;;;4952938;29;20134;-83
2021/12/16 12:40:00;;;;;;;48.22;10.55;;;7.20;99.90;;;;;;4952888;29;20062;-80
2021/12/16 12:42:29;;;;;;;35.67;9.88;;;7.20;99.90;;;;;;4952318;29;20554;-80
2021/12/16 12:44:57;;;;;;;33.67;8.55;;;7.20;99.90;;;;;;4951921;29;20078;-79
2021/12/16 12:47:28;;;;;;;19.67;7.97;;;7.20;99.90;;;;;;4952093;29;20142;-80
2021/12/16 12:50:10;;;;;;;16.55;8.25;;;7.30;99.90;;;;;;4951915;29;20057;-80
2021/12/16 12:52:38;;;;;;;23.48;7.70;;;7.30;99.90;;;;;;4934802;29;20047;-80
2021/12/16 12:55:11;;;;;;;20.63;7.95;;;7.30;99.90;;;;;;4951784;29;20059;-79
2021/12/16 12:57:42;;;;;;;16.92;7.18;;;7.40;99.90;;;;;;4950067;29;20054;-79
2021/12/16 13:00:27;;;;;;;15.38;7.68;;;7.30;99.90;;;;;;4942422;29;20134;-79
2021/12/16 13:02:59;;;;;;;15.60;6.45;;;7.30;99.90;;;;;;4951793;29;20055;-81
2021/12/16 13:05:28;;;;;;;14.73;7.50;;;7.30;99.90;;;;;;4935363;29;20047;-81
2021/12/16 13:08:00;;;;;;;17.23;7.30;;;7.40;99.90;;;;;;4934641;29;20058;-79
2021/12/16 13:10:35;;;;;;;20.90;7.97;;;7.40;99.90;;;;;;4951628;29;20130;-78
2021/12/16 13:13:30;;;;;;;;;;;7.40;99.90;;;;;;4952009;29;20391;-79
2021/12/16 13:16:21;;;;;;;20.48;8.18;;;7.40;99.90;;;;;;4951157;29;19927;-80
2021/12/16 13:25:00;;;;;;;10.65;5.72;;;7.40;99.90;;;;;;4933989;29;20429;-79
2021/12/16 13:27:43;;;;;;;15.75;5.97;;;7.40;99.90;;;;;;4930492;29;20048;-78
2021/12/16 13:30:30;;;;;;;20.50;6.82;;;7.50;99.90;;;;;;4931311;29;20055;-79
2021/12/16 13:33:22;;;;;;;29.85;8.40;;;7.50;99.90;;;;;;4934199;29;20138;-76
2021/12/16 13:36:01;;;;;;;18.67;6.53;;;7.50;99.90;;;;;;4941430;29;20572;-78
2021/12/16 13:38:40;;;;;;;13.77;6.18;;;7.60;99.90;;;;;;4937587;29;20055;-78
2021/12/16 13:41:14;;;;;;;12.77;5.95;;;7.60;99.90;;;;;;4931314;29;20050;-77
2021/12/16 13:43:58;;;;;;;11.07;5.50;;;7.60;99.90;;;;;;4926363;29;20110;-77
2021/12/16 13:46:36;;;;;;;9.13;5.47;;;7.60;99.90;;;;;;4932731;29;20106;-80
2021/12/16 14:03:24;;;;;;;10.32;5.63;;;7.70;99.90;;;;;;4930557;29;20763;-80
2021/12/16 14:06:13;;;;;;;9.98;5.95;;;7.70;99.90;;;;;;4943716;29;20523;-79
2021/12/16 14:08:45;;;;;;;10.48;5.72;;;7.70;99.90;;;;;;4949984;29;20058;-77
2021/12/16 14:14:50;;;;;;;11.10;6.35;;;7.60;99.90;;;;;;4931249;29;20059;-79
2021/12/16 14:17:55;;;;;;;12.77;6.30;;;7.60;99.90;;;;;;4946663;29;20098;-79
2021/12/16 14:23:29;;;;;;;13.70;5.47;;;7.50;99.90;;;;;;4949969;29;20090;-78
2021/12/16 14:26:20;;;;;;;12.90;6.57;;;7.50;99.90;;;;;;4949654;29;20047;-79
2021/12/16 14:34:52;;;;;;;10.48;5.88;;;7.50;99.90;;;;;;4949900;29;20066;-77
2021/12/16 14:37:28;;;;;;;16.35;7.05;;;7.50;99.90;;;;;;4949290;29;20111;-77
2021/12/16 14:40:34;;;;;;;13.02;6.50;;;7.50;99.90;;;;;;4948410;29;20055;-80
2021/12/16 14:43:16;;;;;;;14.05;6.18;;;7.50;99.90;;;;;;4945038;29;20055;-80
2021/12/16 14:45:46;;;;;;;14.77;6.68;;;7.50;99.90;;;;;;4943599;29;20051;-78
2021/12/16 14:48:31;;;;;;;17.13;6.65;;;7.50;99.90;;;;;;4948345;29;20081;-79
2021/12/16 14:51:03;;;;;;;32.20;8.52;;;7.40;99.90;;;;;;4930728;29;20058;-78
2021/12/16 14:53:36;;;;;;;40.85;10.30;;;7.50;99.90;;;;;;4934089;29;20090;-78
2021/12/16 14:56:08;;;;;;;30.38;8.95;;;7.40;99.90;;;;;;4933665;29;20461;-78
2021/12/16 14:58:35;;;;;;;49.75;9.73;;;7.50;99.90;;;;;;4933715;29;20056;-78
2021/12/16 15:01:09;;;;;;;54.70;11.63;;;7.50;99.90;;;;;;4932764;29;20589;-78
2021/12/16 15:03:40;;;;;;;50.85;13.00;;;7.50;99.90;;;;;;4933736;29;20051;-78
2021/12/16 15:06:15;;;;;;;41.17;10.27;;;7.50;99.90;;;;;;4933481;29;20513;-78
2021/12/16 15:08:50;;;;;;;26.85;7.75;;;7.50;99.90;;;;;;4933406;29;20134;-77
2021/12/16 15:11:30;;;;;;;13.93;5.85;;;7.50;99.90;;;;;;4943678;29;20054;-76
2021/12/16 15:14:02;;;;;;;10.95;5.35;;;7.50;99.90;;;;;;4932810;29;20089;-78
2021/12/16 15:36:40;;;;;;;8.98;4.90;;;7.40;99.90;;;;;;4927440;29;20051;-75
2021/12/16 15:39:25;;;;;;;9.05;4.50;;;7.40;99.90;;;;;;4951847;29;20044;-75
2021/12/16 15:44:49;;;;;;;8.27;4.40;;;7.30;99.90;;;;;;4946356;29;20134;-77
2021/12/16 15:47:16;;;;;;;8.85;4.68;;;7.30;99.90;;;;;;4932738;29;20051;-78
2021/12/16 15:49:43;;;;;;;9.27;4.80;;;7.30;99.90;;;;;;4932845;29;20048;-77
2021/12/16 15:52:11;;;;;;;9.05;5.10;;;7.30;99.90;;;;;;4935772;29;20058;-77
2021/12/16 15:54:44;;;;;;;9.07;5.07;;;7.30;99.90;;;;;;4943625;29;20052;-76
2021/12/16 15:57:11;;;;;;;10.02;4.63;;;7.30;99.90;;;;;;4933020;29;20070;-76
2021/12/16 16:02:22;;;;;;;8.77;4.40;;;7.30;99.90;;;;;;4948251;28;21548;-80
2021/12/16 16:04:50;;;;;;;11.10;4.75;;;7.30;99.90;;;;;;4940950;29;20086;-80
2021/12/16 16:07:18;;;;;;;8.25;4.82;;;7.30;99.90;;;;;;4933135;29;20047;-81
2021/12/16 16:09:50;;;;;;;11.43;5.03;;;7.30;99.90;;;;;;4932763;29;20043;-82
2021/12/16 16:12:23;;;;;;;7.13;4.45;;;7.20;99.90;;;;;;4939411;29;20405;-83
2021/12/16 16:14:55;;;;;;;9.85;4.80;;;7.20;99.90;;;;;;4946484;29;20133;-85
2021/12/16 16:17:25;;;;;;;9.02;4.53;;;7.20;99.90;;;;;;4953346;29;20086;-83
2021/12/16 16:19:55;;;;;;;8.77;4.85;;;7.20;99.90;;;;;;4952622;28;20409;-83
2021/12/16 16:22:23;;;;;;;8.93;4.78;;;7.10;99.90;;;;;;4955503;29;20051;-81
2021/12/16 16:24:54;;;;;;;9.88;4.80;;;7.10;99.90;;;;;;4954171;29;20065;-81
2021/12/16 16:27:25;;;;;;;8.25;4.47;;;7.10;99.90;;;;;;4952977;29;20051;-79
2021/12/16 16:29:58;;;;;;;7.75;4.28;;;7.10;99.90;;;;;;4942915;29;20053;-81
2021/12/16 16:32:30;;;;;;;9.07;4.50;;;7.00;99.90;;;;;;4948719;29;20378;-80
2021/12/16 16:34:58;;;;;;;9.65;5.15;;;7.00;99.90;;;;;;4935357;29;20143;-79
2021/12/16 16:37:29;;;;;;;9.07;4.93;;;7.00;99.90;;;;;;4936237;29;20056;-81
2021/12/16 16:40:11;;;;;;;9.32;4.53;;;7.00;99.90;;;;;;4934200;29;20055;-79
2021/12/16 16:42:42;;;;;;;10.27;5.07;;;7.00;99.90;;;;;;4916354;29;20058;-79
2021/12/16 16:45:18;;;;;;;8.27;4.85;;;7.00;99.90;;;;;;4935278;29;20388;-79
2021/12/16 16:47:52;;;;;;;8.30;4.85;;;6.90;99.90;;;;;;4932873;29;20063;-78
2021/12/16 16:50:22;;;;;;;9.80;5.10;;;6.90;99.90;;;;;;4933889;29;20750;-79
2021/12/16 16:52:52;;;;;;;9.55;5.95;;;6.90;99.90;;;;;;4932979;29;20066;-79
2021/12/16 16:55:23;;;;;;;11.05;6.60;;;6.90;99.90;;;;;;4934630;29;20057;-81
2021/12/16 16:57:54;;;;;;;10.98;5.72;;;6.80;99.90;;;;;;4951296;29;20059;-78
2021/12/16 17:00:27;;;;;;;11.68;5.90;;;6.80;99.90;;;;;;4951723;29;20054;-79
2021/12/16 17:02:59;;;;;;;10.82;5.25;;;6.80;99.90;;;;;;4935749;29;20047;-79
2021/12/16 17:05:33;;;;;;;9.38;5.05;;;6.80;99.90;;;;;;4932892;29;20083;-82
2021/12/16 17:08:05;;;;;;;8.75;5.00;;;6.70;99.90;;;;;;4932648;29;20054;-80
2021/12/16 17:10:42;;;;;;;7.97;4.55;;;6.70;99.90;;;;;;4932416;29;20429;-80
2021/12/16 17:13:13;;;;;;;9.98;5.05;;;6.60;99.90;;;;;;4941747;29;20066;-81
2021/12/16 17:17:11;;;;;;;9.88;4.85;;;6.60;99.90;;;;;;4950595;28;20051;-78
2021/12/16 17:18:35;;;;;;;9.38;4.93;;;6.50;99.90;;;;;;4943582;29;20056;-80
2021/12/16 17:21:13;;;;;;;8.10;4.93;;;6.50;99.90;;;;;;4937091;29;20059;-82
2021/12/16 17:23:41;;;;;;;11.63;5.05;;;6.40;99.90;;;;;;4950962;29;20058;-79
2021/12/16 17:26:26;;;;;;;10.52;5.03;;;6.30;99.90;;;;;;4950708;29;20062;-81
2021/12/16 17:28:56;;;;;;;9.07;4.63;;;6.20;99.90;;;;;;4944265;29;20140;-79
2021/12/16 17:31:33;;;;;;;11.02;5.60;;;6.20;99.90;;;;;;4942197;29;20055;-80
2021/12/16 17:34:14;;;;;;;10.93;4.88;;;6.20;99.90;;;;;;4932081;29;20170;-80
2021/12/16 17:36:50;;;;;;;8.30;4.20;;;6.20;99.90;;;;;;4931441;29;20063;-80
2021/12/16 17:39:21;;;;;;;8.27;3.90;;;6.10;99.90;;;;;;4940841;29;20039;-78
2021/12/16 17:41:56;;;;;;;7.68;4.18;;;6.10;99.90;;;;;;4951050;29;20138;-79
2021/12/16 17:44:26;;;;;;;8.05;4.07;;;6.00;99.90;;;;;;4937829;29;20048;-81
2021/12/16 17:46:56;;;;;;;8.00;4.72;;;6.00;99.90;;;;;;4931451;29;20062;-80
2021/12/16 17:49:26;;;;;;;10.68;5.60;;;5.90;99.90;;;;;;4935174;29;20059;-79
2021/12/16 17:51:54;;;;;;;8.82;5.07;;;5.80;99.90;;;;;;4931722;29;20055;-81
2021/12/16 17:54:21;;;;;;;14.00;7.45;;;5.70;99.90;;;;;;4931593;29;20060;-78
2021/12/16 17:56:54;;;;;;;13.25;6.72;;;5.70;99.90;;;;;;4931748;29;20062;-80
2021/12/16 17:59:23;;;;;;;15.90;7.88;;;5.60;99.90;;;;;;4937336;29;20130;-79
2021/12/16 18:01:50;;;;;;;15.52;7.72;;;5.50;99.90;;;;;;4933957;29;20054;-80
2021/12/16 18:04:20;;;;;;;9.75;5.25;;;5.60;99.90;;;;;;4932479;29;20054;-80
2021/12/16 18:06:55;;;;;;;11.93;6.57;;;5.50;99.90;;;;;;4931118;29;20528;-79
2021/12/16 18:09:27;;;;;;;11.05;6.60;;;5.50;99.90;;;;;;4932486;29;20055;-78
2021/12/16 18:11:59;;;;;;;10.23;5.72;;;5.60;99.90;;;;;;4936486;29;20511;-79
2021/12/16 18:14:31;;;;;;;8.57;4.80;;;5.50;99.90;;;;;;4946752;29;20587;-77
2021/12/16 18:17:01;;;;;;;10.10;5.55;;;5.60;99.90;;;;;;4933286;29;20171;-78
2021/12/16 18:19:36;;;;;;;10.18;5.40;;;5.50;99.90;;;;;;4949019;29;20488;-76
2021/12/16 18:22:09;;;;;;;10.32;5.63;;;5.50;99.90;;;;;;4940388;29;20055;-76
2021/12/16 18:24:41;;;;;;;10.32;6.00;;;5.50;99.90;;;;;;4931130;29;20054;-80
2021/12/16 18:27:17;;;;;;;10.98;5.93;;;5.50;99.90;;;;;;4932484;29;20057;-78
2021/12/16 18:29:45;;;;;;;11.13;5.68;;;5.50;99.90;;;;;;4937626;29;20051;-79
2021/12/16 18:32:12;;;;;;;12.07;5.80;;;5.40;99.90;;;;;;4952694;29;20067;-79
2021/12/16 18:34:40;;;;;;;9.00;4.97;;;5.40;99.90;;;;;;4952870;29;20043;-77
2021/12/16 18:37:12;;;;;;;10.00;5.40;;;5.40;99.90;;;;;;4944300;29;20083;-79
2021/12/16 18:39:48;;;;;;;10.27;5.30;;;5.40;99.90;;;;;;4941487;29;20055;-79
2021/12/16 18:42:21;;;;;;;8.65;5.25;;;5.30;99.90;;;;;;4945051;29;20142;-79
2021/12/16 18:44:53;;;;;;;10.77;5.38;;;5.20;99.90;;;;;;4937222;29;20047;-81
2021/12/16 18:47:29;;;;;;;10.18;4.75;;;5.20;99.90;;;;;;4933435;29;20138;-80
2021/12/16 18:50:02;;;;;;;11.10;5.40;;;5.20;99.90;;;;;;4933919;29;20268;-79
2021/12/16 18:52:48;;;;;;;10.15;5.65;;;5.20;99.90;;;;;;4941980;29;20055;-79
2021/12/16 18:55:18;;;;;;;10.13;5.25;;;5.10;99.90;;;;;;4942145;29;20142;-78
2021/12/16 18:57:45;;;;;;;8.02;5.10;;;5.10;99.90;;;;;;4934963;29;20117;-79
2021/12/16 19:00:15;;;;;;;9.93;5.43;;;5.10;99.90;;;;;;4944580;29;20126;-77
2021/12/16 19:02:43;;;;;;;9.93;5.32;;;5.10;99.90;;;;;;4933257;29;20135;-78
2021/12/16 19:05:12;;;;;;;9.10;5.25;;;5.00;99.90;;;;;;4933327;29;20140;-79
2021/12/16 19:07:42;;;;;;;12.27;5.45;;;5.00;99.90;;;;;;4933392;29;20051;-78
2021/12/16 19:10:17;;;;;;;20.33;11.25;;;5.00;99.90;;;;;;4935171;29;20557;-77
2021/12/16 19:12:46;;;;;;;21.63;12.88;;;5.00;99.90;;;;;;4951120;29;20505;-79
2021/12/16 19:15:17;;;;;;;19.00;11.40;;;5.00;99.90;;;;;;4950382;29;20066;-78
2021/12/16 19:17:48;;;;;;;15.55;8.55;;;4.90;99.90;;;;;;4945320;29;20472;-78
2021/12/16 19:20:23;;;;;;;10.48;6.13;;;4.90;99.90;;;;;;4945993;29;20050;-78
2021/12/16 19:22:52;;;;;;;;;;;4.90;99.90;;;;;;4933388;29;20071;-78
2021/12/16 19:25:23;;;;;;;11.23;5.80;;;4.80;99.90;;;;;;4941657;29;19945;-78
2021/12/16 19:27:53;;;;;;;8.85;5.10;;;4.70;99.90;;;;;;4939291;29;20051;-77
2021/12/16 19:30:24;;;;;;;11.63;6.30;;;4.70;99.90;;;;;;4932831;29;20048;-77
2021/12/16 19:32:53;;;;;;;11.77;6.40;;;4.70;99.90;;;;;;4942288;29;20493;-77
2021/12/16 19:35:21;;;;;;;10.43;5.45;;;4.60;99.90;;;;;;4949586;29;20060;-79
2021/12/16 19:37:52;;;;;;;9.23;5.10;;;4.60;99.90;;;;;;4951340;28;20134;-79
2021/12/16 19:40:30;;;;;;;11.35;5.70;;;4.60;99.90;;;;;;4950750;29;20055;-79
2021/12/16 19:43:03;;;;;;;9.95;5.68;;;4.60;99.90;;;;;;4951254;29;20055;-78
2021/12/16 19:45:34;;;;;;;8.45;5.00;;;4.60;99.90;;;;;;4940461;29;20414;-80
2021/12/16 19:48:04;;;;;;;10.85;5.72;;;4.50;99.90;;;;;;4948375;29;20114;-78
2021/12/16 19:50:34;;;;;;;10.68;6.03;;;4.50;99.90;;;;;;4943742;29;20044;-80
2021/12/16 19:53:03;;;;;;;9.77;5.43;;;4.50;99.90;;;;;;4944761;29;20473;-78
2021/12/16 19:55:32;;;;;;;11.18;6.05;;;4.40;99.90;;;;;;4952355;28;20043;-79
2021/12/16 19:58:04;;;;;;;10.05;6.10;;;4.40;99.90;;;;;;4938115;29;20776;-78
2021/12/16 20:00:37;;;;;;;12.43;7.35;;;4.40;99.90;;;;;;4936134;29;20051;-77
2021/12/16 20:03:06;;;;;;;15.35;7.68;;;4.40;99.90;;;;;;4933365;29;20564;-78
2021/12/16 20:05:34;;;;;;;12.27;7.20;;;4.40;99.90;;;;;;4942760;29;20047;-78
2021/12/16 20:08:02;;;;;;;12.82;7.00;;;4.40;99.90;;;;;;4941850;29;20050;-80
2021/12/16 20:10:37;;;;;;;13.68;6.50;;;4.30;99.90;;;;;;4939311;29;20051;-79
2021/12/16 20:13:10;;;;;;;10.43;6.13;;;4.30;99.90;;;;;;4939234;29;20057;-79
2021/12/16 20:15:42;;;;;;;11.10;5.85;;;4.20;99.90;;;;;;4951483;29;20043;-79
2021/12/16 20:18:13;;;;;;;9.55;5.80;;;4.20;99.90;;;;;;4949891;29;20055;-78
2021/12/16 20:20:46;;;;;;;9.98;5.80;;;4.20;99.90;;;;;;4951121;29;20063;-80
2021/12/16 20:23:13;;;;;;;10.07;5.60;;;4.10;99.90;;;;;;4951281;29;20413;-77
2021/12/16 20:25:47;;;;;;;11.18;6.10;;;4.10;99.90;;;;;;4944879;29;20135;-78
2021/12/16 20:28:21;;;;;;;11.10;6.18;;;4.10;99.90;;;;;;4931987;29;20566;-79
2021/12/16 20:30:56;;;;;;;9.85;5.90;;;4.10;99.90;;;;;;4940028;29;20043;-81